createdAt,value
2022-11-27T00:00:44.894Z,11.27
2022-11-27T00:03:12.100Z,8.57
2022-11-27T00:05:38.782Z,8.10
2022-11-27T00:08:05.403Z,7.85
2022-11-27T00:10:31.943Z,9.60
2022-11-27T00:12:58.518Z,8.63
2022-11-27T00:15:25.062Z,8.55
2022-11-27T00:17:51.626Z,9.73
2022-11-27T00:20:18.188Z,10.90
2022-11-27T00:22:44.729Z,10.88
2022-11-27T00:25:11.313Z,11.55
2022-11-27T00:27:37.850Z,12.18
2022-11-27T00:30:04.767Z,12.63
2022-11-27T00:32:31.340Z,12.77
2022-11-27T00:34:57.941Z,13.10
2022-11-27T00:37:24.520Z,14.02
2022-11-27T00:39:51.091Z,14.82
2022-11-27T00:42:17.848Z,15.27
2022-11-27T00:44:44.379Z,15.38
2022-11-27T00:47:10.924Z,16.08
2022-11-27T00:49:37.578Z,14.68
2022-11-27T00:52:04.234Z,15.02
2022-11-27T00:54:30.829Z,15.23
2022-11-27T00:56:57.410Z,14.18
2022-11-27T00:59:23.951Z,14.50
2022-11-27T01:01:50.719Z,12.93
2022-11-27T01:04:17.518Z,13.77
2022-11-27T01:06:45.003Z,14.07
2022-11-27T01:09:15.540Z,13.50
2022-11-27T01:11:42.705Z,13.10
2022-11-27T01:14:13.973Z,13.60
2022-11-27T01:16:43.143Z,13.32
2022-11-27T01:19:11.559Z,12.52
2022-11-27T01:21:38.131Z,12.93
2022-11-27T01:24:05.286Z,12.65
2022-11-27T01:26:32.225Z,12.18
2022-11-27T01:28:59.253Z,12.18
2022-11-27T01:31:28.647Z,12.10
2022-11-27T01:34:00.979Z,11.18
2022-11-27T01:36:28.128Z,12.57
2022-11-27T01:38:54.683Z,12.98
2022-11-27T01:41:30.213Z,12.27
2022-11-27T01:44:02.026Z,12.60
2022-11-27T01:46:36.505Z,11.57
2022-11-27T01:49:15.226Z,12.40
2022-11-27T01:51:45.507Z,11.95
2022-11-27T01:54:12.307Z,12.27
2022-11-27T01:56:40.507Z,11.07
2022-11-27T01:59:07.691Z,12.35
2022-11-27T02:01:34.294Z,11.13
2022-11-27T02:04:02.175Z,11.73
2022-11-27T02:06:28.752Z,11.02
2022-11-27T02:08:56.237Z,11.20
2022-11-27T02:11:42.262Z,11.00
2022-11-27T02:14:25.691Z,10.63
2022-11-27T02:17:00.712Z,10.63
2022-11-27T02:19:43.593Z,10.57
2022-11-27T02:22:43.058Z,10.05
2022-11-27T02:26:00.567Z,9.68
2022-11-27T02:28:35.498Z,10.02
2022-11-27T02:31:16.955Z,10.20
2022-11-27T02:33:48.957Z,9.73
2022-11-27T02:36:19.859Z,9.48
2022-11-27T02:38:54.874Z,9.27
2022-11-27T02:41:33.754Z,9.93
2022-11-27T02:44:00.861Z,9.73
2022-11-27T02:46:28.780Z,9.90
2022-11-27T02:48:58.000Z,9.18
2022-11-27T02:51:29.621Z,8.60
2022-11-27T02:54:03.513Z,8.15
2022-11-27T02:56:31.477Z,8.88
2022-11-27T02:59:01.484Z,8.52
2022-11-27T03:01:31.377Z,8.50
2022-11-27T03:03:59.532Z,8.05
2022-11-27T03:06:31.115Z,8.18
2022-11-27T03:08:58.474Z,8.93
2022-11-27T03:11:26.631Z,9.25
2022-11-27T03:14:01.383Z,9.88
2022-11-27T03:16:52.913Z,9.25
2022-11-27T03:19:53.907Z,8.48
2022-11-27T03:22:20.497Z,9.30
2022-11-27T03:24:49.866Z,9.57
2022-11-27T03:27:21.291Z,9.10
2022-11-27T03:29:57.192Z,8.82
2022-11-27T03:32:24.403Z,9.18
2022-11-27T03:34:51.063Z,9.48
2022-11-27T03:37:17.807Z,9.70
2022-11-27T03:39:44.543Z,9.77
2022-11-27T03:42:29.813Z,9.73
2022-11-27T03:45:53.826Z,9.75
2022-11-27T03:48:43.676Z,9.63
2022-11-27T03:51:44.273Z,9.45
2022-11-27T03:54:35.871Z,9.98
2022-11-27T03:57:11.734Z,9.90
2022-11-27T03:59:41.722Z,10.05
2022-11-27T04:02:13.872Z,9.52
2022-11-27T04:04:40.892Z,10.43
2022-11-27T04:07:07.647Z,10.13
2022-11-27T04:09:34.211Z,10.50
2022-11-27T04:12:00.764Z,11.05
2022-11-27T04:14:27.368Z,10.77
2022-11-27T04:16:53.948Z,10.90
2022-11-27T04:19:20.491Z,11.77
2022-11-27T04:21:47.027Z,10.73
2022-11-27T04:24:13.695Z,12.32
2022-11-27T04:26:40.275Z,11.75
2022-11-27T04:29:06.814Z,11.80
2022-11-27T04:31:33.513Z,10.80
2022-11-27T04:34:00.145Z,10.95
2022-11-27T04:36:26.697Z,10.90
2022-11-27T04:38:53.222Z,11.15
2022-11-27T04:41:19.815Z,11.77
2022-11-27T04:43:46.435Z,12.65
2022-11-27T04:46:13.026Z,12.18
2022-11-27T04:48:39.604Z,10.98
2022-11-27T04:51:06.278Z,11.10
2022-11-27T04:53:32.905Z,10.38
2022-11-27T04:55:59.454Z,11.57
2022-11-27T04:58:26.071Z,11.15
2022-11-27T05:00:52.652Z,11.98
2022-11-27T05:03:19.243Z,12.80
2022-11-27T05:05:45.880Z,11.02
2022-11-27T05:08:12.427Z,10.57
2022-11-27T05:10:39.039Z,12.15
2022-11-27T05:13:05.613Z,11.38
2022-11-27T05:15:32.187Z,10.43
2022-11-27T05:17:58.731Z,10.80
2022-11-27T05:20:25.274Z,11.40
2022-11-27T05:22:51.853Z,11.02
2022-11-27T05:25:18.547Z,11.63
2022-11-27T05:27:45.084Z,11.25
2022-11-27T05:30:11.907Z,11.57
2022-11-27T05:32:38.463Z,12.38
2022-11-27T05:35:05.413Z,10.60
2022-11-27T05:37:32.302Z,11.43
2022-11-27T05:39:58.994Z,10.77
2022-11-27T05:42:25.549Z,11.98
2022-11-27T05:44:57.801Z,12.38
2022-11-27T05:47:25.136Z,12.35
2022-11-27T05:49:51.789Z,11.00
2022-11-27T05:52:18.351Z,12.20
2022-11-27T05:54:44.939Z,11.15
2022-11-27T05:57:11.503Z,11.68
2022-11-27T05:59:38.161Z,11.48
2022-11-27T06:02:04.949Z,11.82
2022-11-27T06:04:34.615Z,10.30
2022-11-27T06:07:01.190Z,11.85
2022-11-27T06:09:27.963Z,11.75
2022-11-27T06:11:54.551Z,12.52
2022-11-27T06:14:21.153Z,12.40
2022-11-27T06:16:47.789Z,11.38
2022-11-27T06:19:14.459Z,12.65
2022-11-27T06:21:41.026Z,12.35
2022-11-27T06:24:07.708Z,10.45
2022-11-27T06:26:34.332Z,11.15
2022-11-27T06:29:01.279Z,11.57
2022-11-27T06:31:30.697Z,11.07
2022-11-27T06:33:57.991Z,12.25
2022-11-27T06:36:28.520Z,10.90
2022-11-27T06:38:55.332Z,11.98
2022-11-27T06:41:24.716Z,11.48
2022-11-27T06:43:51.692Z,11.57
2022-11-27T06:46:20.274Z,11.23
2022-11-27T06:48:48.591Z,12.23
2022-11-27T06:51:17.292Z,11.50
2022-11-27T06:53:44.452Z,11.93
2022-11-27T06:56:13.507Z,11.52
2022-11-27T06:58:40.314Z,11.65
2022-11-27T07:01:10.942Z,11.60
2022-11-27T07:03:37.542Z,11.65
2022-11-27T07:06:05.579Z,11.80
2022-11-27T07:08:32.530Z,10.98
2022-11-27T07:11:10.837Z,10.55
2022-11-27T07:16:06.654Z,10.27
2022-11-27T07:18:41.017Z,10.75
2022-11-27T07:21:08.245Z,10.75
2022-11-27T07:23:35.733Z,9.68
2022-11-27T07:26:07.462Z,10.50
2022-11-27T07:28:34.390Z,10.93
2022-11-27T07:31:01.762Z,11.02
2022-11-27T07:33:28.430Z,10.68
2022-11-27T07:36:29.172Z,11.18
2022-11-27T07:38:56.167Z,10.75
2022-11-27T07:41:22.834Z,10.77
2022-11-27T07:43:49.507Z,11.88
2022-11-27T07:46:19.089Z,9.63
2022-11-27T07:48:45.905Z,10.73
2022-11-27T07:51:16.027Z,10.48
2022-11-27T07:53:43.190Z,10.70
2022-11-27T07:56:11.595Z,10.27
2022-11-27T08:01:10.109Z,10.18
2022-11-27T08:03:36.842Z,11.85
2022-11-27T08:06:03.995Z,10.68
2022-11-27T08:08:30.722Z,9.82
2022-11-27T08:10:57.268Z,10.32
2022-11-27T08:13:23.800Z,10.50
2022-11-27T08:15:50.403Z,10.60
2022-11-27T08:18:16.970Z,10.77
2022-11-27T08:20:43.507Z,10.90
2022-11-27T08:23:10.166Z,10.15
2022-11-27T08:25:38.072Z,10.63
2022-11-27T08:28:04.893Z,12.10
2022-11-27T08:30:31.582Z,9.48
2022-11-27T08:32:58.125Z,10.73
2022-11-27T08:35:24.669Z,10.48
2022-11-27T08:37:51.276Z,10.82
2022-11-27T08:40:17.957Z,11.60
2022-11-27T08:42:44.533Z,10.27
2022-11-27T08:45:11.397Z,12.15
2022-11-27T08:47:38.387Z,11.40
2022-11-27T08:50:05.550Z,10.45
2022-11-27T08:52:32.327Z,10.40
2022-11-27T08:54:59.254Z,10.73
2022-11-27T08:57:26.138Z,10.13
2022-11-27T08:59:52.737Z,9.93
2022-11-27T09:02:19.266Z,9.98
2022-11-27T09:04:45.850Z,10.13
2022-11-27T09:07:15.283Z,9.63
2022-11-27T09:09:41.932Z,10.18
2022-11-27T09:12:08.553Z,9.65
2022-11-27T09:14:35.169Z,9.57
2022-11-27T09:17:03.135Z,9.57
2022-11-27T09:19:29.804Z,9.23
2022-11-27T09:21:56.484Z,8.57
2022-11-27T09:24:23.118Z,8.90
2022-11-27T09:26:49.697Z,9.32
2022-11-27T09:29:16.248Z,8.80
2022-11-27T09:31:42.909Z,8.38
2022-11-27T09:34:09.531Z,8.27
2022-11-27T09:36:36.170Z,9.45
2022-11-27T09:39:03.744Z,9.02
2022-11-27T09:41:49.584Z,8.47
2022-11-27T09:44:17.992Z,9.02
2022-11-27T09:46:45.293Z,8.07
2022-11-27T09:49:18.665Z,7.70
2022-11-27T09:52:08.533Z,8.25
2022-11-27T09:54:38.533Z,7.78
2022-11-27T09:57:05.719Z,7.20
2022-11-27T09:59:41.138Z,6.97
2022-11-27T10:02:20.316Z,7.63
2022-11-27T10:05:12.424Z,7.47
2022-11-27T10:07:39.900Z,7.13
2022-11-27T10:10:25.282Z,7.60
2022-11-27T10:13:00.457Z,7.22
2022-11-27T10:15:42.512Z,6.53
2022-11-27T10:18:17.870Z,6.72
2022-11-27T10:20:49.217Z,6.63
2022-11-27T10:23:47.130Z,6.45
2022-11-27T10:26:16.767Z,6.55
2022-11-27T10:28:56.122Z,6.72
2022-11-27T10:31:36.922Z,7.15
2022-11-27T10:34:15.626Z,6.95
2022-11-27T10:36:48.522Z,7.75
2022-11-27T10:39:36.758Z,6.75
2022-11-27T10:42:08.946Z,6.13
2022-11-27T10:44:39.540Z,5.43
2022-11-27T10:47:08.715Z,6.15
2022-11-27T10:49:39.955Z,5.78
2022-11-27T10:52:12.246Z,6.47
2022-11-27T10:54:39.525Z,6.10
2022-11-27T10:57:06.307Z,6.75
2022-11-27T10:59:40.221Z,5.75
2022-11-27T11:02:26.495Z,6.03
2022-11-27T11:05:16.248Z,6.25
2022-11-27T11:07:39.767Z,6.10
2022-11-27T11:10:25.946Z,5.03
2022-11-27T11:13:11.635Z,5.20
2022-11-27T11:16:06.006Z,4.95
2022-11-27T11:18:34.967Z,5.65
2022-11-27T11:21:03.733Z,5.28
2022-11-27T11:23:33.305Z,5.30
2022-11-27T11:26:03.748Z,5.07
2022-11-27T11:28:35.168Z,5.32
2022-11-27T11:31:09.122Z,5.72
2022-11-27T11:33:47.180Z,5.78
2022-11-27T11:36:13.837Z,5.82
2022-11-27T11:38:43.066Z,5.20
2022-11-27T11:41:09.908Z,5.22
2022-11-27T11:43:37.380Z,6.03
2022-11-27T11:46:18.566Z,5.07
2022-11-27T11:48:54.278Z,5.82
2022-11-27T11:51:35.624Z,5.75
2022-11-27T11:54:07.913Z,4.85
2022-11-27T11:56:38.828Z,4.55
2022-11-27T11:59:22.811Z,5.05
2022-11-27T12:02:10.506Z,4.70
2022-11-27T12:04:43.538Z,4.60
2022-11-27T12:07:32.178Z,4.63
2022-11-27T12:12:43.268Z,5.40
2022-11-27T12:15:15.673Z,5.05
2022-11-27T12:17:57.330Z,5.00
2022-11-27T12:21:15.492Z,5.10
2022-11-27T12:24:03.151Z,4.65
2022-11-27T12:26:47.763Z,4.65
2022-11-27T12:29:20.498Z,4.32
2022-11-27T12:32:08.378Z,4.65
2022-11-27T12:34:56.910Z,4.70
2022-11-27T12:37:32.777Z,5.03
2022-11-27T12:40:37.907Z,5.00
2022-11-27T12:43:22.911Z,5.10
2022-11-27T12:45:51.273Z,6.30
2022-11-27T12:48:41.173Z,5.50
2022-11-27T12:51:44.369Z,6.07
2022-11-27T12:54:31.806Z,6.72
2022-11-27T12:57:07.398Z,6.00
2022-11-27T12:59:39.307Z,6.18
2022-11-27T13:02:34.704Z,5.97
2022-11-27T13:05:05.302Z,5.43
2022-11-27T13:07:46.517Z,4.60
2022-11-27T13:10:36.305Z,4.93
2022-11-27T13:13:07.014Z,4.57
2022-11-27T13:15:43.938Z,4.28
2022-11-27T13:18:19.477Z,4.82
2022-11-27T13:20:51.889Z,4.28
2022-11-27T13:23:20.367Z,4.05
2022-11-27T13:25:51.154Z,4.18
2022-11-27T13:28:30.475Z,4.82
2022-11-27T13:30:59.101Z,4.57
2022-11-27T13:35:57.611Z,4.20
2022-11-27T13:38:25.955Z,4.13
2022-11-27T13:40:55.978Z,4.50
2022-11-27T13:43:29.151Z,4.72
2022-11-27T13:46:25.227Z,4.20
2022-11-27T13:48:56.675Z,4.93
2022-11-27T13:51:35.167Z,4.32
2022-11-27T13:56:39.419Z,4.65
2022-11-27T13:59:20.049Z,4.55
2022-11-27T14:02:13.174Z,4.47
2022-11-27T14:04:54.462Z,4.18
2022-11-27T14:07:23.476Z,4.47
2022-11-27T14:09:53.046Z,4.55
2022-11-27T14:12:25.541Z,4.18
2022-11-27T14:15:02.104Z,4.45
2022-11-27T14:17:41.552Z,3.67
2022-11-27T14:20:11.488Z,4.10
2022-11-27T14:23:09.857Z,3.78
2022-11-27T14:25:36.299Z,4.45
2022-11-27T14:28:21.725Z,3.90
2022-11-27T14:30:53.383Z,3.53
2022-11-27T14:33:23.141Z,3.75
2022-11-27T14:35:51.845Z,3.40
2022-11-27T14:38:18.582Z,3.20
2022-11-27T14:40:46.299Z,3.70
2022-11-27T14:43:18.482Z,4.30
2022-11-27T14:45:46.913Z,3.60
2022-11-27T14:48:27.515Z,3.15
2022-11-27T14:50:55.244Z,3.83
2022-11-27T14:53:24.963Z,3.40
2022-11-27T14:55:55.318Z,2.92
2022-11-27T14:58:27.237Z,3.90
2022-11-27T15:01:01.364Z,3.10
2022-11-27T15:03:28.835Z,3.00
2022-11-27T15:06:00.929Z,2.95
2022-11-27T15:08:28.951Z,3.17
2022-11-27T15:10:57.212Z,3.17
2022-11-27T15:13:29.562Z,4.60
2022-11-27T15:16:13.794Z,3.35
2022-11-27T15:18:40.995Z,3.38
2022-11-27T15:21:12.245Z,3.17
2022-11-27T15:23:45.390Z,2.67
2022-11-27T15:26:16.892Z,2.92
2022-11-27T15:28:57.193Z,2.60
2022-11-27T15:31:30.528Z,2.85
2022-11-27T15:34:13.540Z,3.25
2022-11-27T15:36:42.092Z,2.78
2022-11-27T15:41:55.951Z,2.72
2022-11-27T15:44:23.979Z,3.65
2022-11-27T15:46:51.174Z,2.95
2022-11-27T15:49:19.594Z,3.80
2022-11-27T15:51:46.215Z,3.03
2022-11-27T15:54:12.789Z,3.10
2022-11-27T15:56:39.485Z,2.95
2022-11-27T15:59:06.231Z,4.18
2022-11-27T16:01:32.907Z,3.70
2022-11-27T16:03:59.602Z,3.60
2022-11-27T16:06:26.190Z,3.20
2022-11-27T16:09:00.396Z,2.80
2022-11-27T16:11:28.434Z,3.20
2022-11-27T16:13:55.023Z,2.92
2022-11-27T16:16:22.336Z,3.40
2022-11-27T16:18:48.954Z,4.38
2022-11-27T16:21:17.055Z,3.65
2022-11-27T16:23:43.787Z,3.92
2022-11-27T16:26:14.709Z,3.75
2022-11-27T16:28:41.457Z,3.20
2022-11-27T16:31:11.132Z,3.75
2022-11-27T16:33:37.881Z,2.72
2022-11-27T16:36:16.139Z,3.28
2022-11-27T16:38:43.526Z,3.20
2022-11-27T16:41:12.654Z,3.33
2022-11-27T16:43:41.390Z,3.25
2022-11-27T16:46:16.467Z,3.22
2022-11-27T16:48:43.940Z,3.22
2022-11-27T16:51:16.213Z,2.60
2022-11-27T16:53:44.876Z,2.60
2022-11-27T16:56:13.247Z,2.75
2022-11-27T16:58:41.809Z,2.88
2022-11-27T17:03:36.422Z,2.92
2022-11-27T17:06:10.703Z,3.03
2022-11-27T17:08:37.920Z,3.30
2022-11-27T17:11:24.942Z,3.75
2022-11-27T17:13:53.050Z,2.80
2022-11-27T17:16:20.067Z,3.13
2022-11-27T17:18:47.071Z,3.70
2022-11-27T17:21:18.959Z,3.90
2022-11-27T17:23:46.876Z,2.85
2022-11-27T17:26:16.022Z,3.15
2022-11-27T17:28:42.571Z,3.58
2022-11-27T17:31:16.127Z,3.20
2022-11-27T17:33:43.102Z,2.83
2022-11-27T17:36:09.994Z,3.50
2022-11-27T17:38:36.874Z,3.00
2022-11-27T17:41:08.790Z,3.80
2022-11-27T17:43:36.302Z,4.80
2022-11-27T17:46:07.784Z,5.10
2022-11-27T17:48:34.543Z,4.47
2022-11-27T17:51:01.415Z,4.10
2022-11-27T17:53:28.046Z,3.78
2022-11-27T17:55:55.586Z,3.83
2022-11-27T17:58:22.111Z,3.03
2022-11-27T18:00:48.822Z,3.00
2022-11-27T18:03:15.438Z,3.20
2022-11-27T18:05:42.073Z,3.42
2022-11-27T18:08:08.657Z,3.05
2022-11-27T18:10:35.601Z,4.13
2022-11-27T18:13:02.205Z,3.55
2022-11-27T18:15:28.777Z,3.50
2022-11-27T18:17:55.338Z,3.70
2022-11-27T18:20:21.937Z,4.38
2022-11-27T18:22:48.491Z,3.92
2022-11-27T18:25:15.170Z,3.70
2022-11-27T18:27:41.843Z,3.25
2022-11-27T18:30:08.941Z,3.90
2022-11-27T18:32:37.137Z,4.45
2022-11-27T18:35:04.106Z,4.65
2022-11-27T18:37:30.690Z,4.10
2022-11-27T18:39:57.235Z,3.67
2022-11-27T18:42:23.873Z,4.15
2022-11-27T18:44:50.523Z,4.22
2022-11-27T18:47:17.252Z,5.30
2022-11-27T18:49:44.202Z,4.57
2022-11-27T18:52:11.171Z,4.35
2022-11-27T18:54:37.842Z,3.70
2022-11-27T18:57:07.016Z,4.05
2022-11-27T18:59:34.291Z,4.85
2022-11-27T19:02:00.886Z,3.80
2022-11-27T19:04:27.478Z,4.43
2022-11-27T19:06:54.018Z,4.28
2022-11-27T19:09:20.628Z,3.80
2022-11-27T19:11:47.221Z,3.70
2022-11-27T19:14:13.872Z,3.92
2022-11-27T19:16:46.164Z,3.35
2022-11-27T19:19:52.835Z,3.95
2022-11-27T19:22:01.971Z,3.38
2022-11-27T19:24:28.561Z,3.20
2022-11-27T19:26:55.270Z,3.10
2022-11-27T19:29:21.829Z,3.10
2022-11-27T19:31:48.480Z,3.10
2022-11-27T19:34:15.147Z,3.45
2022-11-27T19:36:41.862Z,2.90
2022-11-27T19:39:12.476Z,2.90
2022-11-27T19:41:39.062Z,2.83
2022-11-27T19:44:06.487Z,2.90
2022-11-27T19:46:36.354Z,2.97
2022-11-27T19:49:13.258Z,3.63
2022-11-27T19:51:40.104Z,3.10
2022-11-27T19:54:10.210Z,3.50
2022-11-27T19:56:38.852Z,3.45
2022-11-27T19:59:05.944Z,3.45
2022-11-27T20:01:32.715Z,3.42
2022-11-27T20:03:59.937Z,3.28
2022-11-27T20:06:27.141Z,3.30
2022-11-27T20:08:58.813Z,2.70
2022-11-27T20:11:28.622Z,3.13
2022-11-27T20:13:59.765Z,2.85
2022-11-27T20:16:27.191Z,2.65
2022-11-27T20:18:54.211Z,3.60
2022-11-27T20:21:23.004Z,2.80
2022-11-27T20:23:50.936Z,2.78
2022-11-27T20:26:22.889Z,3.00
2022-11-27T20:28:50.247Z,3.50
2022-11-27T20:31:25.518Z,2.78
2022-11-27T20:33:53.371Z,3.53
2022-11-27T20:36:21.218Z,3.10
2022-11-27T20:38:48.296Z,2.95
2022-11-27T20:41:17.215Z,3.28
2022-11-27T20:43:43.933Z,3.15
2022-11-27T20:46:15.511Z,3.38
2022-11-27T20:48:42.587Z,3.38
2022-11-27T20:51:15.513Z,3.33
2022-11-27T20:53:43.519Z,3.45
2022-11-27T20:56:10.914Z,3.28
2022-11-27T20:58:39.304Z,2.83
2022-11-27T21:01:14.848Z,3.20
2022-11-27T21:03:41.578Z,3.70
2022-11-27T21:06:08.522Z,3.70
2022-11-27T21:08:35.446Z,4.53
2022-11-27T21:11:13.490Z,3.90
2022-11-27T21:13:40.149Z,4.20
2022-11-27T21:16:12.193Z,4.38
2022-11-27T21:18:39.205Z,4.30
2022-11-27T21:21:11.779Z,4.72
2022-11-27T21:23:39.318Z,4.43
2022-11-27T21:26:06.507Z,4.78
2022-11-27T21:28:33.620Z,4.20
2022-11-27T21:31:09.074Z,4.03
2022-11-27T21:33:36.274Z,3.92
2022-11-27T21:36:04.171Z,4.15
2022-11-27T21:38:30.995Z,4.50
2022-11-27T21:40:57.555Z,3.72
2022-11-27T21:43:24.166Z,4.00
2022-11-27T21:45:50.866Z,4.00
2022-11-27T21:48:17.561Z,4.30
2022-11-27T21:50:44.470Z,4.15
2022-11-27T21:53:11.053Z,4.53
2022-11-27T21:55:41.994Z,3.75
2022-11-27T21:58:09.047Z,4.38
2022-11-27T22:00:36.470Z,3.30
2022-11-27T22:03:03.150Z,3.90
2022-11-27T22:05:30.084Z,3.63
2022-11-27T22:07:56.744Z,3.42
2022-11-27T22:10:23.411Z,3.65
2022-11-27T22:12:50.002Z,4.10
2022-11-27T22:15:16.759Z,4.30
2022-11-27T22:17:43.364Z,3.30
2022-11-27T22:20:10.263Z,4.10
2022-11-27T22:22:36.793Z,3.95
2022-11-27T22:25:04.619Z,3.67
2022-11-27T22:27:31.211Z,3.70
2022-11-27T22:29:57.762Z,3.85
2022-11-27T22:32:24.382Z,3.60
2022-11-27T22:34:51.825Z,3.35
2022-11-27T22:37:18.368Z,3.30
2022-11-27T22:39:44.904Z,3.63
2022-11-27T22:42:12.250Z,3.58
2022-11-27T22:44:39.252Z,3.08
2022-11-27T22:47:05.930Z,3.47
2022-11-27T22:49:32.504Z,3.30
2022-11-27T22:51:59.054Z,3.28
2022-11-27T22:54:25.616Z,3.35
2022-11-27T22:56:52.158Z,3.30
2022-11-27T22:59:34.793Z,3.92
2022-11-27T23:02:02.597Z,3.50
2022-11-27T23:04:29.308Z,3.83
2022-11-27T23:06:55.855Z,4.35
2022-11-27T23:09:22.446Z,3.85
2022-11-27T23:11:49.578Z,3.90
2022-11-27T23:14:16.295Z,3.95
2022-11-27T23:16:43.184Z,4.18
2022-11-27T23:19:10.468Z,4.40
2022-11-27T23:21:38.820Z,3.95
2022-11-27T23:24:07.036Z,4.13
2022-11-27T23:26:33.965Z,4.28
2022-11-27T23:29:00.541Z,4.10
2022-11-27T23:31:31.115Z,3.78
2022-11-27T23:33:59.212Z,4.03
2022-11-27T23:36:25.948Z,4.28
2022-11-27T23:38:52.628Z,4.55
2022-11-27T23:41:24.322Z,3.97
2022-11-27T23:43:52.291Z,4.07
2022-11-27T23:46:21.055Z,3.90
2022-11-27T23:48:47.690Z,4.63
2022-11-27T23:51:20.077Z,3.90
2022-11-27T23:53:47.004Z,4.03
2022-11-27T23:56:24.882Z,4.15
2022-11-27T23:58:51.649Z,4.50
